createdAt,value
2017-12-05T00:01:54.454Z,5.88
2017-12-05T00:07:57.962Z,5.97
2017-12-05T00:14:02.294Z,5.97
2017-12-05T00:20:05.797Z,5.95
2017-12-05T00:26:10.155Z,5.97
2017-12-05T00:32:13.829Z,5.98
2017-12-05T00:38:18.139Z,6.04
2017-12-05T00:44:22.517Z,6.10
2017-12-05T00:50:26.567Z,6.06
2017-12-05T00:56:30.238Z,6.11
2017-12-05T01:02:33.766Z,6.11
2017-12-05T01:08:37.411Z,6.09
2017-12-05T01:14:41.711Z,6.11
2017-12-05T01:20:45.242Z,6.10
2017-12-05T01:26:49.542Z,6.17
2017-12-05T01:32:53.292Z,6.24
2017-12-05T01:38:56.964Z,6.26
2017-12-05T01:45:00.514Z,6.21
2017-12-05T01:51:05.225Z,6.16
2017-12-05T01:57:11.086Z,6.17
2017-12-05T02:03:14.783Z,6.12
2017-12-05T02:09:18.290Z,6.13
2017-12-05T02:15:22.735Z,6.18
2017-12-05T02:21:26.440Z,6.23
2017-12-05T02:27:30.007Z,6.28
2017-12-05T02:33:33.664Z,6.23
2017-12-05T02:39:37.318Z,6.19
2017-12-05T02:45:40.853Z,6.16
2017-12-05T02:51:44.517Z,6.19
2017-12-05T02:57:48.034Z,6.18
2017-12-05T03:03:51.613Z,6.19
2017-12-05T03:09:55.150Z,6.18
2017-12-05T03:15:58.662Z,6.20
2017-12-05T03:22:02.196Z,6.21
2017-12-05T03:28:05.772Z,6.22
2017-12-05T03:34:09.325Z,6.21
2017-12-05T03:40:12.890Z,6.26
2017-12-05T03:46:16.439Z,6.23
2017-12-05T03:52:20.338Z,6.24
2017-12-05T03:58:24.284Z,6.23
2017-12-05T04:04:27.826Z,6.23
2017-12-05T04:10:31.339Z,6.22
2017-12-05T04:16:36.066Z,6.23
2017-12-05T04:22:39.717Z,6.22
2017-12-05T04:28:43.282Z,6.21
2017-12-05T04:34:46.857Z,6.23
2017-12-05T04:40:50.522Z,6.26
2017-12-05T04:46:55.811Z,6.26
2017-12-05T04:52:59.326Z,6.28
2017-12-05T04:59:02.990Z,6.31
2017-12-05T05:05:06.498Z,6.27
2017-12-05T05:11:10.045Z,6.21
2017-12-05T05:17:13.735Z,6.23
2017-12-05T05:23:17.469Z,6.27
2017-12-05T05:29:21.781Z,6.29
2017-12-05T05:35:26.379Z,6.37
2017-12-05T05:41:30.235Z,6.32
2017-12-05T05:47:33.780Z,6.31
2017-12-05T05:53:38.155Z,6.26
2017-12-05T05:59:41.931Z,6.22
2017-12-05T06:05:45.451Z,6.26
2017-12-05T06:11:48.999Z,6.25
2017-12-05T06:17:53.444Z,6.20
2017-12-05T06:23:57.054Z,6.10
2017-12-05T06:30:00.567Z,6.09
2017-12-05T06:36:04.148Z,6.08
2017-12-05T06:42:08.430Z,6.09
2017-12-05T06:48:11.947Z,6.10
2017-12-05T06:54:16.267Z,6.10
2017-12-05T07:00:19.767Z,6.12
2017-12-05T07:06:24.311Z,5.98
2017-12-05T07:12:27.852Z,5.93
2017-12-05T07:18:31.349Z,5.91
2017-12-05T07:24:34.917Z,5.86
2017-12-05T07:30:38.449Z,5.84
2017-12-05T07:36:42.016Z,5.80
2017-12-05T07:42:45.573Z,5.81
2017-12-05T07:48:49.857Z,5.85
2017-12-05T07:54:53.848Z,5.85
2017-12-05T08:00:57.395Z,5.85
2017-12-05T08:07:00.927Z,5.82
2017-12-05T08:13:04.510Z,5.84
2017-12-05T08:19:08.775Z,5.87
2017-12-05T08:25:13.123Z,5.97
2017-12-05T08:31:16.910Z,6.01
2017-12-05T08:37:21.667Z,6.09
2017-12-05T08:43:25.251Z,6.17
2017-12-05T08:49:29.588Z,6.22
2017-12-05T08:55:33.110Z,6.27
2017-12-05T09:01:36.715Z,6.34
2017-12-05T09:07:40.210Z,6.35
2017-12-05T09:13:43.798Z,6.36
2017-12-05T09:19:47.581Z,6.39
2017-12-05T09:25:51.254Z,6.37
2017-12-05T09:31:55.900Z,6.44
2017-12-05T09:37:59.568Z,6.49
2017-12-05T09:44:03.084Z,6.54
2017-12-05T09:50:06.582Z,6.64
2017-12-05T09:56:11.027Z,6.70
2017-12-05T10:02:14.639Z,6.74
2017-12-05T10:08:18.927Z,6.74
2017-12-05T10:14:22.467Z,6.73
2017-12-05T10:20:26.057Z,6.70
2017-12-05T10:26:30.027Z,6.75
2017-12-05T10:32:33.566Z,6.77
2017-12-05T10:38:37.079Z,6.78
2017-12-05T10:44:40.584Z,6.82
2017-12-05T10:50:44.231Z,6.78
2017-12-05T10:56:48.664Z,6.72
2017-12-05T11:02:52.310Z,6.71
2017-12-05T11:08:55.944Z,6.69
2017-12-05T11:14:59.468Z,6.61
2017-12-05T11:21:03.801Z,6.57
2017-12-05T11:27:07.351Z,6.58
2017-12-05T11:33:10.914Z,6.59
2017-12-05T11:39:14.483Z,6.58
2017-12-05T11:45:18.098Z,6.52
2017-12-05T11:51:21.713Z,6.54
2017-12-05T11:57:26.313Z,6.60
2017-12-05T12:03:29.946Z,6.64
2017-12-05T12:09:34.319Z,6.70
2017-12-05T12:15:37.843Z,6.73
2017-12-05T12:21:41.564Z,6.77
2017-12-05T12:27:45.247Z,6.84
2017-12-05T12:33:48.768Z,6.88
2017-12-05T12:39:53.742Z,6.89
2017-12-05T12:45:57.570Z,6.87
2017-12-05T12:52:01.131Z,6.90
2017-12-05T12:58:04.977Z,6.88
2017-12-05T13:04:08.507Z,6.89
2017-12-05T13:10:12.979Z,6.90
2017-12-05T13:16:16.582Z,6.92
2017-12-05T13:22:20.179Z,6.88
2017-12-05T13:28:24.741Z,6.92
2017-12-05T13:34:28.311Z,6.95
2017-12-05T13:40:31.839Z,6.96
2017-12-05T13:46:35.478Z,6.95
2017-12-05T13:52:39.044Z,6.98
2017-12-05T13:58:42.600Z,6.97
2017-12-05T14:04:46.114Z,6.96
2017-12-05T14:10:49.650Z,6.99
2017-12-05T14:16:53.663Z,6.99
2017-12-05T14:22:57.989Z,6.94
2017-12-05T14:29:01.583Z,6.94
2017-12-05T14:35:05.127Z,6.91
2017-12-05T14:41:08.662Z,6.90
2017-12-05T14:47:12.222Z,6.89
2017-12-05T14:53:15.910Z,6.88
2017-12-05T14:59:19.456Z,6.88
2017-12-05T15:05:23.212Z,6.85
2017-12-05T15:11:26.843Z,6.80
2017-12-05T15:17:30.379Z,6.78
2017-12-05T15:23:34.673Z,6.80
2017-12-05T15:29:38.215Z,6.79
2017-12-05T15:35:41.778Z,6.78
2017-12-05T15:41:45.445Z,6.80
2017-12-05T15:47:49.039Z,6.81
2017-12-05T15:53:52.571Z,6.79
2017-12-05T15:59:56.150Z,6.73
2017-12-05T16:05:59.675Z,6.78
2017-12-05T16:12:03.189Z,6.77
2017-12-05T16:18:07.548Z,6.78
2017-12-05T16:24:11.858Z,6.72
2017-12-05T16:30:15.946Z,6.70
2017-12-05T16:36:19.517Z,6.67
2017-12-05T16:42:23.127Z,6.63
2017-12-05T16:48:26.681Z,6.62
2017-12-05T16:54:30.384Z,6.60
2017-12-05T17:00:34.058Z,6.61
2017-12-05T17:06:37.619Z,6.59
2017-12-05T17:12:41.140Z,6.60
2017-12-05T17:18:44.826Z,6.58
2017-12-05T17:24:48.523Z,6.60
2017-12-05T17:30:52.936Z,6.58
2017-12-05T17:36:57.507Z,6.63
2017-12-05T17:43:01.034Z,6.66
2017-12-05T17:49:04.582Z,6.63
2017-12-05T17:55:08.899Z,6.59
2017-12-05T18:01:12.475Z,6.58
2017-12-05T18:07:16.142Z,6.58
2017-12-05T18:13:19.687Z,6.58
2017-12-05T18:19:23.352Z,6.57
2017-12-05T18:25:27.022Z,6.59
2017-12-05T18:31:31.395Z,6.64
2017-12-05T18:37:35.098Z,6.60
2017-12-05T18:43:38.612Z,6.64
2017-12-05T18:49:42.968Z,6.63
2017-12-05T18:55:48.279Z,6.64
2017-12-05T19:01:52.263Z,6.64
2017-12-05T19:07:56.610Z,6.67
2017-12-05T19:14:00.144Z,6.64
2017-12-05T19:20:03.997Z,6.63
2017-12-05T19:26:07.581Z,6.62
2017-12-05T19:32:11.303Z,6.58
2017-12-05T19:38:14.884Z,6.58
2017-12-05T19:44:18.418Z,6.56
2017-12-05T19:50:22.093Z,6.61
2017-12-05T19:56:26.461Z,6.54
2017-12-05T20:02:30.031Z,6.52
2017-12-05T20:08:33.619Z,6.53
2017-12-05T20:14:37.929Z,6.54
2017-12-05T20:20:41.434Z,6.53
2017-12-05T20:26:45.079Z,6.60
2017-12-05T20:32:48.628Z,6.61
2017-12-05T20:38:53.525Z,6.61
2017-12-05T20:44:57.101Z,6.61
2017-12-05T20:51:01.403Z,6.61
2017-12-05T20:57:04.968Z,6.62
2017-12-05T21:03:08.503Z,6.61
2017-12-05T21:09:12.986Z,6.66
2017-12-05T21:15:16.541Z,6.68
2017-12-05T21:21:20.110Z,6.68
2017-12-05T21:27:23.684Z,6.68
2017-12-05T21:33:27.420Z,6.68
2017-12-05T21:39:31.190Z,6.64
2017-12-05T21:45:34.720Z,6.63
2017-12-05T21:51:38.260Z,6.61
2017-12-05T21:57:42.593Z,6.61
2017-12-05T22:03:46.127Z,6.63
2017-12-05T22:09:49.698Z,6.64
2017-12-05T22:15:53.714Z,6.67
2017-12-05T22:21:58.048Z,6.67
2017-12-05T22:28:01.985Z,6.67
2017-12-05T22:34:05.526Z,6.65
2017-12-05T22:40:09.388Z,6.68
2017-12-05T22:46:12.967Z,6.70
2017-12-05T22:52:16.502Z,6.65
2017-12-05T22:58:20.364Z,6.69
2017-12-05T23:04:24.027Z,6.68
2017-12-05T23:10:27.597Z,6.68
2017-12-05T23:16:31.159Z,6.70
2017-12-05T23:22:35.008Z,6.72
2017-12-05T23:28:38.667Z,6.69
2017-12-05T23:34:42.246Z,6.69
2017-12-05T23:40:45.801Z,6.71
2017-12-05T23:46:49.328Z,6.74
2017-12-05T23:52:53.337Z,6.73
2017-12-05T23:58:57.679Z,6.72
